createdAt,value
2019-01-14T00:00:12.292Z,79.08
2019-01-14T00:01:12.284Z,79.39
2019-01-14T00:02:12.271Z,78.56
2019-01-14T00:03:12.258Z,78.77
2019-01-14T00:04:12.246Z,77.84
2019-01-14T00:05:12.236Z,78.88
2019-01-14T00:06:12.240Z,79.05
2019-01-14T00:07:12.216Z,79.29
2019-01-14T00:08:12.207Z,79.60
2019-01-14T00:09:12.192Z,79.29
2019-01-14T00:10:12.182Z,79.29
2019-01-14T00:11:12.167Z,78.88
2019-01-14T00:12:12.154Z,77.84
2019-01-14T00:13:12.145Z,76.60
2019-01-14T00:14:12.133Z,77.01
2019-01-14T00:15:12.122Z,76.81
2019-01-14T00:16:12.111Z,76.70
2019-01-14T00:17:12.100Z,75.26
2019-01-14T00:18:12.089Z,74.84
2019-01-14T00:19:12.078Z,73.19
2019-01-14T00:20:12.070Z,71.33
2019-01-14T00:21:12.057Z,71.26
2019-01-14T00:22:12.045Z,71.12
2019-01-14T00:23:12.034Z,71.64
2019-01-14T00:24:12.027Z,71.57
2019-01-14T00:25:12.013Z,71.12
2019-01-14T00:26:12.001Z,70.12
2019-01-14T00:27:11.990Z,70.01
2019-01-14T00:28:11.981Z,70.22
2019-01-14T00:29:11.968Z,68.67
2019-01-14T00:30:11.958Z,68.36
2019-01-14T00:31:11.955Z,67.74
2019-01-14T00:32:11.937Z,67.74
2019-01-14T00:33:11.925Z,68.57
2019-01-14T00:34:11.916Z,68.88
2019-01-14T00:35:11.906Z,68.67
2019-01-14T00:36:17.498Z,67.57
2019-01-14T00:37:12.890Z,68.49
2019-01-14T00:38:11.949Z,67.98
2019-01-14T00:39:11.888Z,67.46
2019-01-14T00:40:11.865Z,67.15
2019-01-14T00:41:11.842Z,67.57
2019-01-14T00:42:11.833Z,68.29
2019-01-14T00:43:11.824Z,67.88
2019-01-14T00:44:11.810Z,67.36
2019-01-14T00:45:11.797Z,67.36
2019-01-14T00:46:11.788Z,67.98
2019-01-14T00:47:11.782Z,67.25
2019-01-14T00:48:11.779Z,67.98
2019-01-14T00:49:11.756Z,67.77
2019-01-14T00:50:11.749Z,68.49
2019-01-14T00:51:11.738Z,67.77
2019-01-14T00:52:11.754Z,68.70
2019-01-14T00:53:11.742Z,67.88
2019-01-14T00:54:11.724Z,67.88
2019-01-14T00:55:11.691Z,68.80
2019-01-14T00:56:11.685Z,69.01
2019-01-14T00:57:11.675Z,69.53
2019-01-14T00:58:11.659Z,69.95
2019-01-14T00:59:12.123Z,70.15
2019-01-14T01:00:11.637Z,70.57
2019-01-14T01:01:11.622Z,71.08
2019-01-14T01:02:11.614Z,71.19
2019-01-14T01:03:11.603Z,70.67
2019-01-14T01:04:11.596Z,70.57
2019-01-14T01:05:11.638Z,70.98
2019-01-14T01:06:11.678Z,72.33
2019-01-14T01:07:11.556Z,71.91
2019-01-14T01:08:11.546Z,71.81
2019-01-14T01:09:11.538Z,71.60
2019-01-14T01:10:11.533Z,72.02
2019-01-14T01:11:11.520Z,71.91
2019-01-14T01:12:11.500Z,71.91
2019-01-14T01:13:11.491Z,72.33
2019-01-14T01:14:11.479Z,73.36
2019-01-14T01:15:11.472Z,72.53
2019-01-14T01:16:11.462Z,72.43
2019-01-14T01:17:11.480Z,72.98
2019-01-14T01:18:11.435Z,73.19
2019-01-14T01:19:11.425Z,73.36
2019-01-14T01:20:11.413Z,73.50
2019-01-14T01:21:11.402Z,73.71
2019-01-14T01:22:11.400Z,73.71
2019-01-14T01:23:11.384Z,73.19
2019-01-14T01:24:11.371Z,72.77
2019-01-14T01:25:11.361Z,71.73
2019-01-14T01:26:11.348Z,72.05
2019-01-14T01:27:11.345Z,71.94
2019-01-14T01:28:11.335Z,72.15
2019-01-14T01:29:11.335Z,71.33
2019-01-14T01:30:11.306Z,72.05
2019-01-14T01:31:11.296Z,71.94
2019-01-14T01:32:11.285Z,72.36
2019-01-14T01:33:11.274Z,72.46
2019-01-14T01:34:11.271Z,72.46
2019-01-14T01:35:11.256Z,72.56
2019-01-14T01:36:11.240Z,72.71
2019-01-14T01:37:11.230Z,73.60
2019-01-14T01:38:11.220Z,72.98
2019-01-14T01:39:11.212Z,72.67
2019-01-14T01:40:11.206Z,73.60
2019-01-14T01:41:11.194Z,73.01
2019-01-14T01:42:11.176Z,73.91
2019-01-14T01:43:11.165Z,73.71
2019-01-14T01:44:11.157Z,73.32
2019-01-14T01:45:11.300Z,73.91
2019-01-14T01:46:11.145Z,73.29
2019-01-14T01:47:11.122Z,73.74
2019-01-14T01:48:11.115Z,74.15
2019-01-14T01:49:11.103Z,74.77
2019-01-14T01:50:11.106Z,74.88
2019-01-14T01:51:11.080Z,75.26
2019-01-14T01:52:11.074Z,75.98
2019-01-14T01:53:11.059Z,75.50
2019-01-14T01:54:11.047Z,76.23
2019-01-14T01:55:11.038Z,76.43
2019-01-14T01:56:11.039Z,76.64
2019-01-14T01:57:11.017Z,76.84
2019-01-14T01:58:11.019Z,77.78
2019-01-14T01:59:11.004Z,77.88
2019-01-14T02:00:10.984Z,77.26
2019-01-14T02:01:10.971Z,77.09
2019-01-14T02:02:10.971Z,77.09
2019-01-14T02:03:10.958Z,77.61
2019-01-14T02:04:10.939Z,77.50
2019-01-14T02:05:10.927Z,76.78
2019-01-14T02:06:10.916Z,77.36
2019-01-14T02:07:10.907Z,76.64
2019-01-14T02:08:10.901Z,76.67
2019-01-14T02:09:10.893Z,76.67
2019-01-14T02:10:10.879Z,77.09
2019-01-14T02:11:10.863Z,76.78
2019-01-14T02:12:10.852Z,76.78
2019-01-14T02:13:10.841Z,76.67
2019-01-14T02:14:10.833Z,76.88
2019-01-14T02:15:10.846Z,76.36
2019-01-14T02:16:10.810Z,75.84
2019-01-14T02:17:10.799Z,75.63
2019-01-14T02:18:10.789Z,75.74
2019-01-14T02:19:10.789Z,75.84
2019-01-14T02:20:10.772Z,75.63
2019-01-14T02:21:10.764Z,75.43
2019-01-14T02:22:10.763Z,75.32
2019-01-14T02:23:10.738Z,75.09
2019-01-14T02:24:10.729Z,74.91
2019-01-14T02:25:10.714Z,74.91
2019-01-14T02:26:10.706Z,74.91
2019-01-14T02:27:10.705Z,74.81
2019-01-14T02:28:10.696Z,75.02
2019-01-14T02:29:10.672Z,74.67
2019-01-14T02:30:10.671Z,74.71
2019-01-14T02:31:10.648Z,74.50
2019-01-14T02:32:10.645Z,74.19
2019-01-14T02:33:10.624Z,74.71
2019-01-14T02:34:10.613Z,73.67
2019-01-14T02:35:10.601Z,73.98
2019-01-14T02:36:10.602Z,72.94
2019-01-14T02:37:10.583Z,73.25
2019-01-14T02:38:10.569Z,74.08
2019-01-14T02:39:10.559Z,74.19
2019-01-14T02:40:10.553Z,73.57
2019-01-14T02:41:10.544Z,73.57
2019-01-14T02:42:10.526Z,73.57
2019-01-14T02:43:10.518Z,73.15
2019-01-14T02:44:10.505Z,73.57
2019-01-14T02:45:10.497Z,72.22
2019-01-14T02:46:10.485Z,72.74
2019-01-14T02:47:10.474Z,73.36
2019-01-14T02:48:10.460Z,73.67
2019-01-14T02:49:10.458Z,72.63
2019-01-14T02:50:10.443Z,73.36
2019-01-14T02:51:10.437Z,73.57
2019-01-14T02:52:10.420Z,73.57
2019-01-14T02:53:10.407Z,73.67
2019-01-14T02:54:10.467Z,73.08
2019-01-14T02:55:10.385Z,73.36
2019-01-14T02:56:10.378Z,72.88
2019-01-14T02:57:10.365Z,72.88
2019-01-14T02:58:10.354Z,72.94
2019-01-14T02:59:10.341Z,72.01
2019-01-14T03:00:10.339Z,71.94
2019-01-14T03:01:10.323Z,71.94
2019-01-14T03:02:10.309Z,71.80
2019-01-14T03:03:10.298Z,72.05
2019-01-14T03:04:10.286Z,72.22
2019-01-14T03:05:10.276Z,71.49
2019-01-14T03:06:10.269Z,71.18
2019-01-14T03:07:10.257Z,70.76
2019-01-14T03:08:10.257Z,70.67
2019-01-14T03:09:10.235Z,71.28
2019-01-14T03:10:10.225Z,71.42
2019-01-14T03:11:10.211Z,70.90
2019-01-14T03:12:10.202Z,70.46
2019-01-14T03:13:10.194Z,71.11
2019-01-14T03:14:10.189Z,71.22
2019-01-14T03:15:10.169Z,71.22
2019-01-14T03:16:10.156Z,70.80
2019-01-14T03:17:10.145Z,71.11
2019-01-14T03:18:10.144Z,70.80
2019-01-14T03:19:10.129Z,70.25
2019-01-14T03:20:10.114Z,70.46
2019-01-14T03:21:10.113Z,70.28
2019-01-14T03:22:10.101Z,69.76
2019-01-14T03:23:10.085Z,69.94
2019-01-14T03:24:10.072Z,69.84
2019-01-14T03:25:10.067Z,69.01
2019-01-14T03:26:10.057Z,68.90
2019-01-14T03:27:10.049Z,69.42
2019-01-14T03:28:10.037Z,69.84
2019-01-14T03:29:10.022Z,69.73
2019-01-14T03:30:10.011Z,70.07
2019-01-14T03:31:10.019Z,69.53
2019-01-14T03:32:09.990Z,69.73
2019-01-14T03:33:09.983Z,69.53
2019-01-14T03:34:09.968Z,70.25
2019-01-14T03:35:09.964Z,69.42
2019-01-14T03:36:09.943Z,69.73
2019-01-14T03:37:09.939Z,69.42
2019-01-14T03:38:09.925Z,68.18
2019-01-14T03:39:09.910Z,68.52
2019-01-14T03:40:09.904Z,68.70
2019-01-14T03:41:09.894Z,68.31
2019-01-14T03:42:09.890Z,68.90
2019-01-14T03:43:09.878Z,68.49
2019-01-14T03:44:09.863Z,68.31
2019-01-14T03:45:09.868Z,69.42
2019-01-14T03:46:09.838Z,69.63
2019-01-14T03:47:09.836Z,68.73
2019-01-14T03:48:09.818Z,68.41
2019-01-14T03:49:09.814Z,68.38
2019-01-14T03:50:09.796Z,68.83
2019-01-14T03:51:09.794Z,69.04
2019-01-14T03:52:09.771Z,68.52
2019-01-14T03:53:09.772Z,68.73
2019-01-14T03:54:09.750Z,68.62
2019-01-14T03:55:09.738Z,68.90
2019-01-14T03:56:09.729Z,69.14
2019-01-14T03:57:09.714Z,68.41
2019-01-14T03:58:09.709Z,67.79
2019-01-14T03:59:09.690Z,68.10
2019-01-14T04:00:09.684Z,67.58
2019-01-14T04:01:09.672Z,67.79
2019-01-14T04:02:09.661Z,67.90
2019-01-14T04:03:09.649Z,68.62
2019-01-14T04:04:09.635Z,68.31
2019-01-14T04:05:09.624Z,67.58
2019-01-14T04:06:09.626Z,67.58
2019-01-14T04:07:13.868Z,66.96
2019-01-14T04:08:09.597Z,67.93
2019-01-14T04:09:09.580Z,68.03
2019-01-14T04:10:09.572Z,67.58
2019-01-14T04:11:09.566Z,68.10
2019-01-14T04:12:09.552Z,67.48
2019-01-14T04:13:09.545Z,67.58
2019-01-14T04:14:09.540Z,67.79
2019-01-14T04:15:09.525Z,67.93
2019-01-14T04:16:09.525Z,67.82
2019-01-14T04:17:09.497Z,68.13
2019-01-14T04:18:09.488Z,68.13
2019-01-14T04:19:09.471Z,68.13
2019-01-14T04:20:09.472Z,68.13
2019-01-14T04:21:09.457Z,68.34
2019-01-14T04:22:09.451Z,68.03
2019-01-14T04:23:09.436Z,67.93
2019-01-14T04:24:09.427Z,68.24
2019-01-14T04:25:09.414Z,68.24
2019-01-14T04:26:09.409Z,67.51
2019-01-14T04:27:09.451Z,67.72
2019-01-14T04:28:09.398Z,67.72
2019-01-14T04:29:09.373Z,67.93
2019-01-14T04:30:09.372Z,67.61
2019-01-14T04:31:09.351Z,66.93
2019-01-14T04:32:09.342Z,67.34
2019-01-14T04:33:09.332Z,67.13
2019-01-14T04:34:09.318Z,66.30
2019-01-14T04:35:09.315Z,66.30
2019-01-14T04:36:09.299Z,66.06
2019-01-14T04:37:09.284Z,66.17
2019-01-14T04:38:09.280Z,65.99
2019-01-14T04:39:09.265Z,66.47
2019-01-14T04:40:09.260Z,66.27
2019-01-14T04:41:09.254Z,66.41
2019-01-14T04:42:09.232Z,65.78
2019-01-14T04:43:09.220Z,66.47
2019-01-14T04:44:09.211Z,65.68
2019-01-14T04:45:09.199Z,65.68
2019-01-14T04:46:09.182Z,65.47
2019-01-14T04:47:09.171Z,65.06
2019-01-14T04:48:09.159Z,66.09
2019-01-14T04:49:09.158Z,66.72
2019-01-14T04:50:09.138Z,65.16
2019-01-14T04:51:09.129Z,64.64
2019-01-14T04:52:09.118Z,63.29
2019-01-14T04:53:09.123Z,63.21
2019-01-14T04:54:09.094Z,63.11
2019-01-14T04:55:09.090Z,63.21
2019-01-14T04:56:09.082Z,63.42
2019-01-14T04:57:09.062Z,63.42
2019-01-14T04:58:09.051Z,62.70
2019-01-14T04:59:09.043Z,61.55
2019-01-14T05:00:09.032Z,61.35
2019-01-14T05:01:09.018Z,61.24
2019-01-14T05:02:09.012Z,61.24
2019-01-14T05:03:09.003Z,62.10
2019-01-14T05:04:08.986Z,60.75
2019-01-14T05:05:08.994Z,61.07
2019-01-14T05:06:08.967Z,61.38
2019-01-14T05:07:08.957Z,60.24
2019-01-14T05:08:08.948Z,60.13
2019-01-14T05:09:08.941Z,60.24
2019-01-14T05:10:08.925Z,59.61
2019-01-14T05:11:08.912Z,59.82
2019-01-14T05:12:08.905Z,59.19
2019-01-14T05:13:08.902Z,59.71
2019-01-14T05:14:08.896Z,58.88
2019-01-14T05:15:08.880Z,59.12
2019-01-14T05:16:08.874Z,59.01
2019-01-14T05:17:08.848Z,58.70
2019-01-14T05:18:08.839Z,58.60
2019-01-14T05:19:08.842Z,58.98
2019-01-14T05:20:08.828Z,59.64
2019-01-14T05:21:08.816Z,59.33
2019-01-14T05:22:08.798Z,59.22
2019-01-14T05:23:08.795Z,58.81
2019-01-14T05:24:08.780Z,59.01
2019-01-14T05:25:08.769Z,59.33
2019-01-14T05:26:08.758Z,59.35
2019-01-14T05:27:08.752Z,59.43
2019-01-14T05:28:08.743Z,58.50
2019-01-14T05:29:09.424Z,58.81
2019-01-14T05:30:08.716Z,58.91
2019-01-14T05:31:08.710Z,59.33
2019-01-14T05:32:08.700Z,58.91
2019-01-14T05:33:08.681Z,58.81
2019-01-14T05:34:08.676Z,59.64
2019-01-14T05:35:08.658Z,59.74
2019-01-14T05:36:08.645Z,59.43
2019-01-14T05:37:08.649Z,59.43
2019-01-14T05:38:08.646Z,59.22
2019-01-14T05:39:08.617Z,58.50
2019-01-14T05:40:08.605Z,59.53
2019-01-14T05:41:08.599Z,59.43
2019-01-14T05:42:08.579Z,60.24
2019-01-14T05:43:08.572Z,60.57
2019-01-14T05:44:08.560Z,61.61
2019-01-14T05:45:08.564Z,61.71
2019-01-14T05:46:08.546Z,61.30
2019-01-14T05:47:08.527Z,61.61
2019-01-14T05:48:08.521Z,61.51
2019-01-14T05:49:08.514Z,61.71
2019-01-14T05:50:08.501Z,61.82
2019-01-14T05:51:08.492Z,61.30
2019-01-14T05:52:08.488Z,62.45
2019-01-14T05:53:08.470Z,62.45
2019-01-14T05:54:08.458Z,62.96
2019-01-14T05:55:08.449Z,63.07
2019-01-14T05:56:08.436Z,62.45
2019-01-14T05:57:08.440Z,62.45
2019-01-14T05:58:08.413Z,63.07
2019-01-14T05:59:08.405Z,63.09
2019-01-14T06:00:08.397Z,62.57
2019-01-14T06:01:08.385Z,62.55
2019-01-14T06:02:08.375Z,62.45
2019-01-14T06:03:08.373Z,63.51
2019-01-14T06:04:08.360Z,62.88
2019-01-14T06:05:08.348Z,62.55
2019-01-14T06:06:08.334Z,62.05
2019-01-14T06:07:08.323Z,61.82
2019-01-14T06:08:08.312Z,61.19
2019-01-14T06:09:08.308Z,61.22
2019-01-14T06:10:08.925Z,62.13
2019-01-14T06:11:08.278Z,61.40
2019-01-14T06:12:08.270Z,61.40
2019-01-14T06:13:08.260Z,61.61
2019-01-14T06:14:08.247Z,60.91
2019-01-14T06:15:08.233Z,61.30
2019-01-14T06:16:08.310Z,60.78
2019-01-14T06:17:08.349Z,61.30
2019-01-14T06:18:08.199Z,61.09
2019-01-14T06:19:08.196Z,61.19
2019-01-14T06:20:08.180Z,61.82
2019-01-14T06:21:08.181Z,61.30
2019-01-14T06:22:08.175Z,61.30
2019-01-14T06:23:08.278Z,62.65
2019-01-14T06:24:08.134Z,61.40
2019-01-14T06:25:08.389Z,61.30
2019-01-14T06:26:08.116Z,60.88
2019-01-14T06:27:08.109Z,60.36
2019-01-14T06:28:08.099Z,60.05
2019-01-14T06:29:08.083Z,60.16
2019-01-14T06:30:08.073Z,60.05
2019-01-14T06:31:08.066Z,60.68
2019-01-14T06:32:08.051Z,60.65
2019-01-14T06:33:08.109Z,60.68
2019-01-14T06:34:08.029Z,60.78
2019-01-14T06:35:08.020Z,60.68
2019-01-14T06:36:08.145Z,61.09
2019-01-14T06:37:08.005Z,60.99
2019-01-14T06:38:07.984Z,61.40
2019-01-14T06:39:07.977Z,62.13
2019-01-14T06:40:07.998Z,63.17
2019-01-14T06:41:07.962Z,63.90
2019-01-14T06:42:07.945Z,66.60
2019-01-14T06:43:07.941Z,66.91
2019-01-14T06:44:07.930Z,69.61
2019-01-14T06:45:07.914Z,71.69
2019-01-14T06:46:07.908Z,74.95
2019-01-14T06:47:07.890Z,77.16
2019-01-14T06:48:07.877Z,78.66
2019-01-14T06:49:07.873Z,79.28
2019-01-14T06:50:07.864Z,79.94
2019-01-14T06:51:07.853Z,80.71
2019-01-14T06:52:07.841Z,81.96
2019-01-14T06:53:07.825Z,81.96
2019-01-14T06:54:07.819Z,82.37
2019-01-14T06:55:07.809Z,82.27
2019-01-14T06:56:07.806Z,83.45
2019-01-14T06:57:07.783Z,83.52
2019-01-14T06:58:07.780Z,82.82
2019-01-14T06:59:07.762Z,83.25
2019-01-14T07:00:07.752Z,83.35
2019-01-14T07:01:07.753Z,83.66
2019-01-14T07:02:07.741Z,83.45
2019-01-14T07:03:07.719Z,84.60
2019-01-14T07:04:07.708Z,85.68
2019-01-14T07:05:07.696Z,85.89
2019-01-14T07:06:07.688Z,85.58
2019-01-14T07:07:07.796Z,86.10
2019-01-14T07:08:07.667Z,85.78
2019-01-14T07:09:07.654Z,86.20
2019-01-14T07:10:07.646Z,85.99
2019-01-14T07:11:07.637Z,85.16
2019-01-14T07:12:07.629Z,85.16
2019-01-14T07:13:07.621Z,85.36
2019-01-14T07:14:07.602Z,85.36
2019-01-14T07:15:07.596Z,85.05
2019-01-14T07:16:07.578Z,85.16
2019-01-14T07:17:07.568Z,85.05
2019-01-14T07:18:07.563Z,85.05
2019-01-14T07:19:07.558Z,85.05
2019-01-14T07:20:07.541Z,84.84
2019-01-14T07:21:07.549Z,84.53
2019-01-14T07:22:07.516Z,84.53
2019-01-14T07:23:08.287Z,84.43
2019-01-14T07:24:07.495Z,84.12
2019-01-14T07:25:07.493Z,83.49
2019-01-14T07:26:07.484Z,82.70
2019-01-14T07:27:07.465Z,83.49
2019-01-14T07:28:07.450Z,82.59
2019-01-14T07:29:07.441Z,82.76
2019-01-14T07:30:07.437Z,82.28
2019-01-14T07:31:07.445Z,81.51
2019-01-14T07:32:07.413Z,81.82
2019-01-14T07:33:07.399Z,82.03
2019-01-14T07:34:07.387Z,81.62
2019-01-14T07:35:07.377Z,81.72
2019-01-14T07:36:07.372Z,80.78
2019-01-14T07:37:07.363Z,81.30
2019-01-14T07:38:07.372Z,80.68
2019-01-14T07:39:07.335Z,80.57
2019-01-14T07:40:07.330Z,80.33
2019-01-14T07:41:07.317Z,80.36
2019-01-14T07:42:07.306Z,79.60
2019-01-14T07:43:07.304Z,80.12
2019-01-14T07:44:07.285Z,79.39
2019-01-14T07:45:07.279Z,79.18
2019-01-14T07:46:07.259Z,77.93
2019-01-14T07:47:07.249Z,77.51
2019-01-14T07:48:07.243Z,77.23
2019-01-14T07:49:07.239Z,77.62
2019-01-14T07:50:07.221Z,77.51
2019-01-14T07:51:07.205Z,76.47
2019-01-14T07:52:07.201Z,76.47
2019-01-14T07:53:07.184Z,75.85
2019-01-14T07:54:07.185Z,75.95
2019-01-14T07:55:07.179Z,75.95
2019-01-14T07:56:07.155Z,76.47
2019-01-14T07:57:07.142Z,76.68
2019-01-14T07:58:07.133Z,75.22
2019-01-14T07:59:07.123Z,74.49
2019-01-14T08:00:07.114Z,74.39
2019-01-14T08:01:07.120Z,73.35
2019-01-14T08:02:07.091Z,73.35
2019-01-14T08:03:07.080Z,72.17
2019-01-14T08:04:07.067Z,71.37
2019-01-14T08:05:07.059Z,70.61
2019-01-14T08:06:07.051Z,70.40
2019-01-14T08:07:07.047Z,70.40
2019-01-14T08:08:13.766Z,68.42
2019-01-14T08:09:08.981Z,69.15
2019-01-14T08:10:07.003Z,69.35
2019-01-14T08:11:06.994Z,67.79
2019-01-14T08:12:06.989Z,67.48
2019-01-14T08:13:06.998Z,67.07
2019-01-14T08:14:06.983Z,64.56
2019-01-14T08:15:06.950Z,64.87
2019-01-14T08:16:06.939Z,64.87
2019-01-14T08:17:06.929Z,65.30
2019-01-14T08:18:06.929Z,63.42
2019-01-14T08:19:06.925Z,63.70
2019-01-14T08:20:06.899Z,63.32
2019-01-14T08:21:06.889Z,63.81
2019-01-14T08:22:06.875Z,64.32
2019-01-14T08:23:06.868Z,63.60
2019-01-14T08:24:06.861Z,63.70
2019-01-14T08:25:06.855Z,63.60
2019-01-14T08:26:06.832Z,63.49
2019-01-14T08:27:06.824Z,63.18
2019-01-14T08:28:06.812Z,63.39
2019-01-14T08:29:06.804Z,63.60
2019-01-14T08:30:06.801Z,63.81
2019-01-14T08:31:06.791Z,63.08
2019-01-14T08:32:06.767Z,63.08
2019-01-14T08:33:06.757Z,63.39
2019-01-14T08:34:06.746Z,64.53
2019-01-14T08:35:06.742Z,64.75
2019-01-14T08:36:06.740Z,63.60
2019-01-14T08:37:06.730Z,63.36
2019-01-14T08:38:06.705Z,63.39
2019-01-14T08:39:06.693Z,63.36
2019-01-14T08:40:06.682Z,63.49
2019-01-14T08:41:06.675Z,63.29
2019-01-14T08:42:06.662Z,62.66
2019-01-14T08:43:06.646Z,63.39
2019-01-14T08:44:06.636Z,63.08
2019-01-14T08:45:06.624Z,62.45
2019-01-14T08:46:06.613Z,62.35
2019-01-14T08:47:06.602Z,62.76
2019-01-14T08:48:06.598Z,63.18
2019-01-14T08:49:06.581Z,62.66
2019-01-14T08:50:06.570Z,62.98
2019-01-14T08:51:06.560Z,62.14
2019-01-14T08:52:06.550Z,63.18
2019-01-14T08:53:06.543Z,63.29
2019-01-14T08:54:06.532Z,63.70
2019-01-14T08:55:06.517Z,63.70
2019-01-14T08:56:06.509Z,63.70
2019-01-14T08:57:06.498Z,63.18
2019-01-14T08:58:06.487Z,62.55
2019-01-14T08:59:06.477Z,62.55
2019-01-14T09:00:06.465Z,63.39
2019-01-14T09:01:06.454Z,63.18
2019-01-14T09:02:06.443Z,61.41
2019-01-14T09:03:06.431Z,61.10
2019-01-14T09:04:06.422Z,61.93
2019-01-14T09:05:06.418Z,61.41
2019-01-14T09:06:06.404Z,61.72
2019-01-14T09:07:06.389Z,60.89
2019-01-14T09:08:06.383Z,60.40
2019-01-14T09:09:06.366Z,60.71
2019-01-14T09:10:06.367Z,61.54
2019-01-14T09:11:06.350Z,60.82
2019-01-14T09:12:06.337Z,61.00
2019-01-14T09:13:06.324Z,61.72
2019-01-14T09:14:06.315Z,61.41
2019-01-14T09:15:06.307Z,60.89
2019-01-14T09:16:06.299Z,60.16
2019-01-14T09:17:06.295Z,60.16
2019-01-14T09:18:06.275Z,60.27
2019-01-14T09:19:06.261Z,60.37
2019-01-14T09:20:06.250Z,60.37
2019-01-14T09:21:06.239Z,60.37
2019-01-14T09:22:06.235Z,59.33
2019-01-14T09:23:06.228Z,59.23
2019-01-14T09:24:06.215Z,58.60
2019-01-14T09:25:06.197Z,58.39
2019-01-14T09:26:06.186Z,58.91
2019-01-14T09:27:06.181Z,59.02
2019-01-14T09:28:06.168Z,58.60
2019-01-14T09:29:06.170Z,58.39
2019-01-14T09:30:06.149Z,58.60
2019-01-14T09:31:06.132Z,59.02
2019-01-14T09:32:06.124Z,59.33
2019-01-14T09:33:06.119Z,57.77
2019-01-14T09:34:06.107Z,58.50
2019-01-14T09:35:06.095Z,58.39
2019-01-14T09:36:06.081Z,57.98
2019-01-14T09:37:06.068Z,58.58
2019-01-14T09:38:06.063Z,57.77
2019-01-14T09:39:06.053Z,57.46
2019-01-14T09:40:06.044Z,57.67
2019-01-14T09:41:06.038Z,57.25
2019-01-14T09:42:06.023Z,54.44
2019-01-14T09:43:06.010Z,55.27
2019-01-14T09:44:06.004Z,55.79
2019-01-14T09:45:05.987Z,55.38
2019-01-14T09:46:05.986Z,55.35
2019-01-14T09:47:05.975Z,55.66
2019-01-14T09:48:05.955Z,55.87
2019-01-14T09:49:05.942Z,55.58
2019-01-14T09:50:05.931Z,55.16
2019-01-14T09:51:05.921Z,55.35
2019-01-14T09:52:05.917Z,55.45
2019-01-14T09:53:05.917Z,55.14
2019-01-14T09:54:05.894Z,54.72
2019-01-14T09:55:05.983Z,54.31
2019-01-14T09:56:05.872Z,55.14
2019-01-14T09:57:05.856Z,54.31
2019-01-14T09:58:05.852Z,54.21
2019-01-14T09:59:05.858Z,55.14
2019-01-14T10:00:05.832Z,55.24
2019-01-14T10:01:05.819Z,56.08
2019-01-14T10:02:05.823Z,55.43
2019-01-14T10:03:07.330Z,56.60
2019-01-14T10:04:05.792Z,55.32
2019-01-14T10:05:05.776Z,54.49
2019-01-14T10:06:05.763Z,54.80
2019-01-14T10:07:05.750Z,54.18
2019-01-14T10:08:05.813Z,54.60
2019-01-14T10:09:05.734Z,54.39
2019-01-14T10:10:05.723Z,53.97
2019-01-14T10:11:05.708Z,53.97
2019-01-14T10:12:05.698Z,54.28
2019-01-14T10:13:05.687Z,52.93
2019-01-14T10:14:05.675Z,52.62
2019-01-14T10:15:05.675Z,52.20
2019-01-14T10:16:05.654Z,52.83
2019-01-14T10:17:05.648Z,52.10
2019-01-14T10:18:05.687Z,51.79
2019-01-14T10:19:05.621Z,51.48
2019-01-14T10:20:05.611Z,51.40
2019-01-14T10:21:05.603Z,52.72
2019-01-14T10:22:05.598Z,52.72
2019-01-14T10:23:05.583Z,52.31
2019-01-14T10:24:05.578Z,52.72
2019-01-14T10:25:05.557Z,52.00
2019-01-14T10:26:05.554Z,51.68
2019-01-14T10:27:05.537Z,51.68
2019-01-14T10:28:05.529Z,52.31
2019-01-14T10:29:05.515Z,51.06
2019-01-14T10:30:05.506Z,51.48
2019-01-14T10:31:05.501Z,51.17
2019-01-14T10:32:05.487Z,50.85
2019-01-14T10:33:05.479Z,51.71
2019-01-14T10:34:05.469Z,52.23
2019-01-14T10:35:05.452Z,52.41
2019-01-14T10:36:05.441Z,53.03
2019-01-14T10:37:05.436Z,52.62
2019-01-14T10:38:05.424Z,52.41
2019-01-14T10:39:05.420Z,52.83
2019-01-14T10:40:05.406Z,52.83
2019-01-14T10:41:05.386Z,52.51
2019-01-14T10:42:05.412Z,52.02
2019-01-14T10:43:05.369Z,52.85
2019-01-14T10:44:05.363Z,53.58
2019-01-14T10:45:05.350Z,52.33
2019-01-14T10:46:05.341Z,52.23
2019-01-14T10:47:05.325Z,52.33
2019-01-14T10:48:05.323Z,52.41
2019-01-14T10:49:06.849Z,53.87
2019-01-14T10:50:05.302Z,52.95
2019-01-14T10:51:05.286Z,52.31
2019-01-14T10:52:05.287Z,52.51
2019-01-14T10:53:05.266Z,52.41
2019-01-14T10:54:05.257Z,51.79
2019-01-14T10:55:12.075Z,52.51
2019-01-14T10:56:06.236Z,51.68
2019-01-14T10:57:05.227Z,51.37
2019-01-14T10:58:05.206Z,51.66
2019-01-14T10:59:05.197Z,51.56
2019-01-14T11:00:05.190Z,51.48
2019-01-14T11:01:05.180Z,50.52
2019-01-14T11:02:05.177Z,51.48
2019-01-14T11:03:05.157Z,51.66
2019-01-14T11:04:05.158Z,51.48
2019-01-14T11:05:05.133Z,50.62
2019-01-14T11:06:05.136Z,50.23
2019-01-14T11:07:05.120Z,50.33
2019-01-14T11:08:05.108Z,50.31
2019-01-14T11:09:06.062Z,49.37
2019-01-14T11:10:05.087Z,50.43
2019-01-14T11:11:05.070Z,50.62
2019-01-14T11:12:05.066Z,50.83
2019-01-14T11:13:05.055Z,51.25
2019-01-14T11:14:05.046Z,51.45
2019-01-14T11:15:05.038Z,51.45
2019-01-14T11:16:05.025Z,51.45
2019-01-14T11:17:05.016Z,51.45
2019-01-14T11:18:04.998Z,51.66
2019-01-14T11:19:04.986Z,52.49
2019-01-14T11:20:04.974Z,52.39
2019-01-14T11:21:04.970Z,52.47
2019-01-14T11:22:04.953Z,52.36
2019-01-14T11:23:04.945Z,51.12
2019-01-14T11:24:04.937Z,50.81
2019-01-14T11:25:04.931Z,52.28
2019-01-14T11:26:04.909Z,52.49
2019-01-14T11:27:04.905Z,53.11
2019-01-14T11:28:04.895Z,52.91
2019-01-14T11:29:04.883Z,52.70
2019-01-14T11:30:04.874Z,52.39
2019-01-14T11:31:04.863Z,52.70
2019-01-14T11:32:04.846Z,52.28
2019-01-14T11:33:04.841Z,52.80
2019-01-14T11:34:04.835Z,51.74
2019-01-14T11:35:04.836Z,51.76
2019-01-14T11:36:04.815Z,49.37
2019-01-14T11:37:04.798Z,48.02
2019-01-14T11:38:04.787Z,49.90
2019-01-14T11:39:05.376Z,50.00
2019-01-14T11:40:04.761Z,49.79
2019-01-14T11:41:04.882Z,50.00
2019-01-14T11:42:04.754Z,49.90
2019-01-14T11:43:04.782Z,50.08
2019-01-14T11:44:07.672Z,51.12
2019-01-14T11:45:04.718Z,51.53
2019-01-14T11:46:04.695Z,50.10
2019-01-14T11:47:04.688Z,49.27
2019-01-14T11:48:04.684Z,48.72
2019-01-14T11:49:04.670Z,47.40
2019-01-14T11:50:04.658Z,47.50
2019-01-14T11:51:04.646Z,47.79
2019-01-14T11:52:04.632Z,49.06
2019-01-14T11:53:04.632Z,50.18
2019-01-14T11:54:04.625Z,49.37
2019-01-14T11:55:04.603Z,49.66
2019-01-14T11:56:04.589Z,49.68
2019-01-14T11:57:04.581Z,50.42
2019-01-14T11:58:04.576Z,50.10
2019-01-14T11:59:04.565Z,49.48
2019-01-14T12:00:04.555Z,48.23
2019-01-14T12:01:04.538Z,49.27
2019-01-14T12:02:04.526Z,47.52
2019-01-14T12:03:04.519Z,46.46
2019-01-14T12:04:04.504Z,47.00
2019-01-14T12:05:04.498Z,46.98
2019-01-14T12:06:04.514Z,46.48
2019-01-14T12:07:04.489Z,46.69
2019-01-14T12:08:04.473Z,47.11
2019-01-14T12:09:04.459Z,46.98
2019-01-14T12:10:04.445Z,46.69
2019-01-14T12:11:04.433Z,47.21
2019-01-14T12:12:04.422Z,46.59
2019-01-14T12:13:04.407Z,47.21
2019-01-14T12:14:05.537Z,47.40
2019-01-14T12:15:04.666Z,47.61
2019-01-14T12:16:04.383Z,47.83
2019-01-14T12:17:04.375Z,47.83
2019-01-14T12:18:04.376Z,47.31
2019-01-14T12:19:04.347Z,48.05
2019-01-14T12:20:04.335Z,46.88
2019-01-14T12:21:06.325Z,48.13
2019-01-14T12:22:05.162Z,47.63
2019-01-14T12:23:04.959Z,47.31
2019-01-14T12:24:04.964Z,46.67
2019-01-14T12:25:04.318Z,45.53
2019-01-14T12:26:04.276Z,45.97
2019-01-14T12:27:04.412Z,45.42
2019-01-14T12:28:04.251Z,46.46
2019-01-14T12:29:04.605Z,46.48
2019-01-14T12:30:04.980Z,46.98
2019-01-14T12:31:04.309Z,46.67
2019-01-14T12:32:04.207Z,47.21
2019-01-14T12:33:04.270Z,46.88
2019-01-14T12:34:04.709Z,47.00
2019-01-14T12:35:04.179Z,46.69
2019-01-14T12:36:04.339Z,47.00
2019-01-14T12:37:04.158Z,48.02
2019-01-14T12:38:04.993Z,47.00
2019-01-14T12:39:04.213Z,46.80
2019-01-14T12:40:04.463Z,48.15
2019-01-14T12:41:04.520Z,48.05
2019-01-14T12:42:04.099Z,47.63
2019-01-14T12:43:04.087Z,48.25
2019-01-14T12:44:04.080Z,47.63
2019-01-14T12:45:04.071Z,48.46
2019-01-14T12:46:04.059Z,48.05
2019-01-14T12:47:04.390Z,47.52
2019-01-14T12:48:04.099Z,47.83
2019-01-14T12:49:04.024Z,48.17
2019-01-14T12:50:04.017Z,48.77
2019-01-14T12:51:04.004Z,48.88
2019-01-14T12:52:03.995Z,49.19